Time;durP1;ratioP1;P1;durP2;ratioP2;P2;SDS_P1;SDS_P2;PMS_P1;PMS_P2;Temp;Humidity;BMP_temperature;BMP_pressure;BME280_temperature;BME280_humidity;BME280_pressure;Samples;Min_cycle;Max_cycle;Signal;HPM_P1;HPM_P2
2023/01/20 00:02:30;;;;;;;13.93;9.30;;;;;;;-0.96;83.74;100152.44;5093538;28;20101;-70
2023/01/20 00:05:33;;;;;;;18.50;11.70;;;;;;;-0.86;83.59;100156.63;5092910;28;20042;-70
2023/01/20 00:08:38;;;;;;;15.13;11.38;;;;;;;-0.99;84.21;100162.72;5093388;28;20092;-70
2023/01/20 00:11:41;;;;;;;18.70;10.48;;;;;;;-1.13;85.14;100169.75;5093286;28;20051;-69
2023/01/20 00:14:44;;;;;;;12.60;9.93;;;;;;;-1.17;84.87;100163.78;5093338;28;20566;-69
2023/01/20 00:17:48;;;;;;;16.02;11.23;;;;;;;-1.24;85.48;100167.28;5093376;28;20043;-69
2023/01/20 00:20:51;;;;;;;15.98;10.05;;;;;;;-1.15;85.51;100168.91;5093197;28;20071;-70
2023/01/20 00:23:55;;;;;;;13.40;10.27;;;;;;;-1.09;85.37;100174.81;5093301;28;20058;-70
2023/01/20 00:26:58;;;;;;;19.88;14.88;;;;;;;-1.07;84.37;100174.81;5080897;28;20129;-69
2023/01/20 00:30:02;;;;;;;19.23;11.65;;;;;;;-1.14;84.83;100188.56;5093159;28;20452;-70
2023/01/20 00:33:06;;;;;;;14.45;9.68;;;;;;;-1.03;84.33;100179.03;5093029;28;20413;-71
2023/01/20 00:36:11;;;;;;;13.52;8.52;;;;;;;-1.18;84.18;100183.47;5092485;28;20112;-70
2023/01/20 00:39:14;;;;;;;11.93;8.43;;;;;;;-1.09;83.00;100182.50;5092939;28;20581;-70
2023/01/20 00:42:17;;;;;;;11.60;8.00;;;;;;;-1.05;82.81;100178.22;5092894;28;20102;-70
2023/01/20 00:45:20;;;;;;;13.02;8.40;;;;;;;-1.10;82.83;100190.22;5092397;28;20453;-70
2023/01/20 00:48:24;;;;;;;12.15;8.27;;;;;;;-1.18;83.00;100193.72;5093261;28;20051;-70
2023/01/20 00:51:27;;;;;;;13.60;10.30;;;;;;;-1.09;83.09;100194.50;5092809;28;20092;-70
2023/01/20 00:54:30;;;;;;;15.93;10.77;;;;;;;-1.07;83.95;100196.19;5092862;28;20097;-70
2023/01/20 00:57:33;;;;;;;16.00;10.80;;;;;;;-1.17;84.56;100199.72;5092950;28;20089;-70
2023/01/20 01:00:37;;;;;;;19.00;13.43;;;;;;;-1.65;86.00;100209.53;5092590;28;20170;-70
2023/01/20 01:03:43;;;;;;;19.52;13.70;;;;;;;-1.55;85.96;100207.75;5092768;28;20133;-70
2023/01/20 01:06:49;;;;;;;21.15;13.88;;;;;;;-1.55;86.20;100212.88;5091820;28;20133;-70
2023/01/20 01:09:52;;;;;;;23.63;14.82;;;;;;;-1.54;86.19;100215.41;5092609;28;20035;-70
2023/01/20 01:12:55;;;;;;;24.20;16.67;;;;;;;-1.38;85.93;100218.69;5092617;28;20051;-70
2023/01/20 01:15:58;;;;;;;20.48;12.65;;;;;;;-1.62;86.42;100222.31;5094638;28;20420;-70
2023/01/20 01:19:02;;;;;;;18.88;13.35;;;;;;;-1.40;86.04;100223.00;5096570;28;20507;-70
2023/01/20 01:22:05;;;;;;;16.00;9.70;;;;;;;-1.33;85.16;100232.34;5096640;28;20129;-70
2023/01/20 01:25:09;;;;;;;13.93;10.25;;;;;;;-1.42;85.40;100240.09;5096643;28;20047;-70
2023/01/20 01:28:12;;;;;;;15.85;11.38;;;;;;;-1.31;85.25;100242.56;5096576;28;20101;-70
2023/01/20 01:31:20;;;;;;;12.52;8.80;;;;;;;-1.27;84.67;100245.13;5096366;28;20035;-70
2023/01/20 01:34:24;;;;;;;14.68;10.40;;;;;;;-1.18;84.20;100257.88;5096493;28;20050;-70
2023/01/20 01:37:28;;;;;;;15.23;10.52;;;;;;;-1.30;83.58;100259.69;5096524;28;20116;-70
2023/01/20 01:40:33;;;;;;;15.77;10.77;;;;;;;-1.30;83.92;100257.97;5096250;28;20400;-70
2023/01/20 01:43:37;;;;;;;13.90;9.45;;;;;;;-1.34;84.12;100264.00;5096218;28;20051;-70
2023/01/20 01:46:41;;;;;;;13.45;9.68;;;;;;;-1.29;83.49;100267.34;5096350;28;20047;-70
2023/01/20 01:49:46;;;;;;;14.95;10.48;;;;;;;-1.43;83.66;100269.19;5096060;28;20059;-70
2023/01/20 01:52:52;;;;;;;13.38;9.73;;;;;;;-1.54;84.78;100268.41;5096150;28;20104;-70
2023/01/20 01:56:01;;;;;;;15.52;10.90;;;;;;;-1.44;84.04;100272.59;5095182;28;20097;-70
2023/01/20 01:59:04;;;;;;;19.80;10.73;;;;;;;-1.40;83.50;100274.31;5095993;28;20070;-70
2023/01/20 02:02:11;;;;;;;13.38;9.60;;;;;;;-1.36;83.71;100272.56;5095035;28;20067;-70
2023/01/20 02:05:16;;;;;;;14.45;10.05;;;;;;;-1.44;83.35;100275.16;5096130;28;20051;-70
2023/01/20 02:08:19;;;;;;;16.45;10.52;;;;;;;-1.33;83.91;100275.09;5095855;28;20070;-70
2023/01/20 02:11:23;;;;;;;13.20;9.43;;;;;;;-1.22;82.92;100279.25;5095578;28;20101;-70
2023/01/20 02:14:40;;;;;;;13.40;9.70;;;;;;;-1.54;83.47;100284.63;5095748;28;20051;-70
2023/01/20 02:18:20;;;;;;;17.13;10.77;;;;;;;-1.85;84.36;100284.00;5095653;28;20047;-71
2023/01/20 02:21:43;;;;;;;13.48;9.43;;;;;;;-1.80;84.72;100289.94;5095708;28;20035;-70
2023/01/20 02:25:03;;;;;;;13.05;9.73;;;;;;;-1.60;83.82;100292.38;5095085;28;20425;-71
2023/01/20 02:28:37;;;;;;;12.05;8.88;;;;;;;-1.48;83.69;100292.28;5094984;28;20516;-70
2023/01/20 02:31:58;;;;;;;12.52;10.00;;;;;;;-1.57;83.20;100299.19;5095425;28;20409;-71
2023/01/20 02:35:21;;;;;;;12.82;9.60;;;;;;;-1.51;83.46;100301.72;5095347;28;20120;-71
2023/01/20 02:38:48;;;;;;;12.80;9.15;;;;;;;-1.57;83.67;100299.19;5095306;28;20108;-71
2023/01/20 02:42:06;;;;;;;19.15;9.68;;;;;;;-1.52;83.38;100307.72;5095187;28;20030;-71
2023/01/20 02:45:35;;;;;;;14.90;10.95;;;;;;;-1.48;83.09;100309.41;5106221;28;20100;-71
2023/01/20 02:49:09;;;;;;;11.18;8.63;;;;;;;-1.43;83.19;100303.38;5095067;28;20425;-70
2023/01/20 02:52:17;;;;;;;10.35;7.68;;;;;;;-1.48;83.37;100301.69;5095034;28;20062;-70
2023/01/20 02:55:31;;;;;;;16.65;9.25;;;;;;;-1.61;83.45;100311.19;5094915;28;20508;-70
2023/01/20 02:58:49;;;;;;;13.00;9.32;;;;;;;-1.58;83.42;100306.03;5094778;28;20047;-70
2023/01/20 03:02:03;;;;;;;13.27;9.57;;;;;;;-1.59;83.11;100304.34;5094681;28;20090;-70
2023/01/20 03:05:13;;;;;;;13.45;9.35;;;;;;;-1.78;83.97;100308.72;5105981;28;20054;-71
2023/01/20 03:08:17;;;;;;;11.80;8.65;;;;;;;-1.71;84.00;100310.38;5094645;28;20062;-71
2023/01/20 03:11:20;;;;;;;16.63;10.88;;;;;;;-1.57;83.60;100314.56;5093620;28;20093;-70
2023/01/20 03:14:24;;;;;;;12.52;9.02;;;;;;;-1.65;83.52;100319.75;5094449;28;20043;-70
2023/01/20 03:17:27;;;;;;;14.95;10.50;;;;;;;-1.70;83.76;100318.91;5105448;28;20109;-70
2023/01/20 03:20:30;;;;;;;13.13;10.57;;;;;;;-1.61;83.81;100330.84;5093594;28;20096;-70
2023/01/20 03:23:37;;;;;;;15.02;9.52;;;;;;;-1.80;83.43;100335.22;5094348;28;20051;-70
2023/01/20 03:26:40;;;;;;;10.32;7.88;;;;;;;-1.75;82.87;100341.19;5094169;28;20054;-70
2023/01/20 03:29:43;;;;;;;15.27;11.50;;;;;;;-1.72;82.85;100339.44;5094134;28;20405;-70
2023/01/20 03:32:49;;;;;;;17.17;11.13;;;;;;;-1.81;83.43;100343.78;5094144;28;20043;-70
2023/01/20 03:35:53;;;;;;;15.02;9.13;;;;;;;-1.69;83.37;100349.69;5094040;28;20047;-71
2023/01/20 03:38:59;;;;;;;13.77;10.05;;;;;;;-1.59;83.15;100347.09;5092259;28;20047;-70
2023/01/20 03:42:12;;;;;;;16.83;11.00;;;;;;;-1.57;83.01;100353.88;5093948;28;20501;-70
2023/01/20 03:45:23;;;;;;;14.00;10.32;;;;;;;-1.67;82.80;100355.63;5093921;28;20063;-70
2023/01/20 03:48:46;;;;;;;13.88;9.38;;;;;;;-1.75;82.83;100367.66;5093809;28;20059;-70
2023/01/20 03:52:14;;;;;;;14.50;9.98;;;;;;;-1.94;83.87;100366.03;5093971;28;20405;-70
2023/01/20 03:55:23;;;;;;;16.63;12.32;;;;;;;-1.73;83.75;100367.63;5093670;28;20046;-70
2023/01/20 03:58:40;;;;;;;15.02;11.20;;;;;;;-1.64;82.92;100378.69;5093540;28;20093;-70
2023/01/20 04:01:44;;;;;;;14.88;11.07;;;;;;;-1.61;83.10;100371.88;5093289;28;20035;-70
2023/01/20 04:04:48;;;;;;;;;;;;;;;-1.58;82.77;100377.81;5093952;28;20496;-70
2023/01/20 04:07:56;;;;;;;17.48;10.80;;;;;;;-1.64;82.80;100371.00;5093781;28;19938;-70
2023/01/20 04:11:04;;;;;;;17.40;11.27;;;;;;;-1.60;82.89;100379.53;5080772;28;20047;-70
2023/01/20 04:14:08;;;;;;;17.48;11.35;;;;;;;-1.56;82.82;100376.13;5093261;28;20059;-70
2023/01/20 04:17:12;;;;;;;15.65;11.07;;;;;;;-1.64;82.58;100383.84;5092280;28;20097;-70
2023/01/20 04:20:16;;;;;;;14.73;10.07;;;;;;;-1.60;82.85;100376.13;5093327;28;20401;-71
2023/01/20 04:23:34;;;;;;;15.00;11.00;;;;;;;-1.74;82.93;100392.44;5093162;28;20535;-70
2023/01/20 04:26:38;;;;;;;15.75;10.45;;;;;;;-1.53;82.37;100385.47;5093290;28;20051;-70
2023/01/20 04:29:42;;;;;;;11.80;9.40;;;;;;;-1.69;83.05;100389.81;5092954;28;20096;-70
2023/01/20 04:32:45;;;;;;;13.35;10.43;;;;;;;-1.50;82.33;100388.91;5093060;28;20058;-69
2023/01/20 04:35:48;;;;;;;13.90;10.27;;;;;;;-1.55;82.19;100387.22;5092930;28;20063;-69
2023/01/20 04:38:51;;;;;;;14.40;10.57;;;;;;;-1.70;82.65;100394.09;5093062;28;20039;-70
2023/01/20 04:41:55;;;;;;;13.25;9.45;;;;;;;-1.48;82.78;100392.28;5092932;28;20561;-71
2023/01/20 04:44:58;;;;;;;12.95;9.77;;;;;;;-1.64;82.64;100394.09;5092991;28;20093;-70
2023/01/20 04:48:05;;;;;;;15.93;9.75;;;;;;;-1.61;82.69;100410.31;5093257;28;20131;-69
2023/01/20 04:51:09;;;;;;;14.55;10.00;;;;;;;-1.49;82.40;100394.88;5092614;28;20570;-70
2023/01/20 04:54:13;;;;;;;14.77;10.35;;;;;;;-1.45;82.30;100409.38;5092925;28;20093;-70
2023/01/20 04:57:16;;;;;;;14.57;9.77;;;;;;;-1.56;82.65;100411.13;5092783;28;20046;-69
2023/01/20 05:00:20;;;;;;;12.05;8.07;;;;;;;-1.56;82.38;100412.00;5092715;28;20081;-73
2023/01/20 05:03:24;;;;;;;12.43;8.40;;;;;;;-1.60;82.58;100412.03;5093544;28;20068;-69
2023/01/20 05:06:27;;;;;;;11.40;7.95;;;;;;;-1.39;81.91;100409.34;5092889;28;20054;-73
2023/01/20 05:09:31;;;;;;;14.98;8.63;;;;;;;-1.40;82.00;100425.63;5080246;28;20088;-69
2023/01/20 05:12:49;;;;;;;11.13;8.20;;;;;;;-1.57;82.12;100414.56;5069390;28;20058;-68
2023/01/20 05:15:52;;;;;;;11.82;7.88;;;;;;;-1.49;82.31;100417.97;5092159;28;20054;-69
2023/01/20 05:18:55;;;;;;;10.43;7.43;;;;;;;-1.58;82.17;100421.41;5091383;28;20042;-70
2023/01/20 05:21:59;;;;;;;;;;;;;;;-1.62;82.67;100426.56;5093183;28;20102;-69
2023/01/20 05:25:03;;;;;;;11.68;7.18;;;;;;;-1.50;82.25;100432.50;5092732;28;20487;-70
2023/01/20 05:28:07;;;;;;;8.85;6.05;;;;;;;-1.54;82.42;100435.06;5092517;28;20483;-68
2023/01/20 05:31:10;;;;;;;12.55;7.38;;;;;;;-1.47;82.14;100437.63;5092375;28;20536;-68
2023/01/20 05:34:15;;;;;;;;;;;;;;;-1.35;82.24;100439.25;5092905;28;20185;-69
2023/01/20 05:37:40;;;;;;;17.23;12.35;;;;;;;-1.32;81.25;100441.81;5080484;28;19919;-69
2023/01/20 05:41:08;;;;;;;8.90;5.72;;;;;;;-1.45;81.37;100445.28;5092338;28;20117;-68
2023/01/20 05:44:14;;;;;;;11.48;7.47;;;;;;;-1.31;81.43;100450.34;5080189;28;20078;-70
2023/01/20 05:47:28;;;;;;;10.65;6.60;;;;;;;-1.28;81.22;100456.31;5091647;28;20051;-69
2023/01/20 05:50:54;;;;;;;11.02;6.38;;;;;;;-1.32;80.90;100461.47;5091686;28;20448;-69
2023/01/20 05:53:58;;;;;;;14.32;9.80;;;;;;;-1.30;81.23;100450.34;5090453;28;20102;-68
2023/01/20 05:57:05;;;;;;;17.85;9.98;;;;;;;-1.27;80.89;100455.47;5089839;28;20055;-68
2023/01/20 06:00:09;;;;;;;13.88;8.85;;;;;;;-1.30;81.19;100460.63;5091415;28;20043;-69
2023/01/20 06:03:12;;;;;;;10.82;5.70;;;;;;;-1.38;81.31;100470.03;5094124;28;20042;-69
2023/01/20 06:06:17;;;;;;;7.47;5.38;;;;;;;-1.65;82.88;100469.31;5095964;28;20075;-71
2023/01/20 06:09:20;;;;;;;10.13;6.28;;;;;;;-1.56;82.66;100464.97;5083603;28;20054;-69
2023/01/20 06:12:24;;;;;;;12.32;9.13;;;;;;;-1.45;81.86;100471.78;5095677;28;20512;-69
2023/01/20 06:15:28;;;;;;;12.10;6.88;;;;;;;-1.51;81.79;100476.09;5095880;28;20515;-69
2023/01/20 06:18:32;;;;;;;10.18;6.28;;;;;;;-1.75;82.74;100479.59;5095904;28;20074;-69
2023/01/20 06:47:29;;;;;;;10.82;8.27;;;;;;;-1.64;82.80;100504.31;5141440;27;20396;-64
2023/01/20 06:50:33;;;;;;;;;;;;;;;-1.54;82.76;100502.59;5114389;28;20139;-64
2023/01/20 07:05:37;;;;;;;10.18;5.93;;;;;;;-1.73;83.70;100527.41;5115837;27;20428;-66
2023/01/20 07:08:44;;;;;;;9.35;4.55;;;;;;;-1.61;83.91;100525.69;5107886;28;20472;-65
2023/01/20 07:11:48;;;;;;;8.70;5.30;;;;;;;-1.41;83.06;100527.31;5108290;28;20197;-65
2023/01/20 07:14:51;;;;;;;9.30;6.90;;;;;;;-1.31;82.30;100535.88;5108391;28;20047;-65
2023/01/20 07:17:55;;;;;;;7.85;5.80;;;;;;;-1.50;82.61;100539.31;5108414;28;20093;-65
2023/01/20 07:20:59;;;;;;;7.53;5.28;;;;;;;-1.40;82.30;100546.16;5109539;28;20427;-65
2023/01/20 07:24:02;;;;;;;8.98;5.85;;;;;;;-1.39;82.11;100542.72;5109261;28;20039;-65
2023/01/20 07:27:06;;;;;;;9.68;6.45;;;;;;;-1.48;82.85;100546.16;5108878;28;20136;-65
2023/01/20 07:30:09;;;;;;;7.60;5.60;;;;;;;-1.62;84.00;100554.78;5109385;28;20109;-66
2023/01/20 07:33:13;;;;;;;7.85;5.20;;;;;;;-1.51;84.10;100556.44;5109118;28;20075;-69
2023/01/20 07:36:17;;;;;;;8.13;5.22;;;;;;;-1.30;83.08;100565.78;5108955;28;20074;-65
2023/01/20 07:39:20;;;;;;;8.95;5.95;;;;;;;-1.37;83.35;100566.66;5108695;28;20050;-65
2023/01/20 07:42:24;;;;;;;11.13;6.38;;;;;;;-1.37;83.09;100576.06;5118899;28;20049;-65
2023/01/20 07:45:27;;;;;;;9.00;5.53;;;;;;;-1.14;82.64;100569.16;5103735;28;20043;-65
2023/01/20 07:52:04;;;;;;;9.70;5.90;;;;;;;-1.18;82.37;100577.72;5060891;28;20510;-81
2023/01/20 07:55:07;;;;;;;8.13;4.28;;;;;;;-1.14;82.67;100573.44;5063387;28;20044;-79
2023/01/20 07:58:12;;;;;;;11.35;7.07;;;;;;;-1.03;82.69;100584.50;5065332;28;20051;-78
2023/01/20 08:01:21;;;;;;;10.48;5.78;;;;;;;-0.95;81.94;100585.34;5064820;28;20048;-82
2023/01/20 08:04:24;;;;;;;9.50;5.68;;;;;;;-1.11;82.45;100583.69;5070420;28;20067;-80
2023/01/20 08:07:27;;;;;;;;;;;;;;;-1.03;82.54;100581.94;5050149;28;20594;-80
2023/01/20 08:10:31;;;;;;;9.07;5.97;;;;;;;-1.04;82.43;100588.78;5049239;28;19919;-79
2023/01/20 08:13:34;;;;;;;20.13;12.85;;;;;;;-1.06;82.71;100593.06;5048575;28;20522;-80
2023/01/20 08:16:37;;;;;;;10.07;7.15;;;;;;;-1.14;82.74;100604.22;5050384;28;20078;-79
2023/01/20 08:19:41;;;;;;;12.25;7.53;;;;;;;-1.14;83.00;100606.78;5050713;28;20300;-79
2023/01/20 08:22:44;;;;;;;27.30;14.85;;;;;;;-1.04;82.57;100600.78;5049926;28;20051;-78
2023/01/20 08:25:47;;;;;;;25.08;13.50;;;;;;;-1.10;82.64;100605.91;5049072;28;20075;-79
2023/01/20 08:28:51;;;;;;;15.98;10.52;;;;;;;-1.04;82.82;100608.47;5029908;28;20436;-80
2023/01/20 08:31:54;;;;;;;12.68;8.10;;;;;;;-1.01;83.13;100616.16;5030544;28;20052;-79
2023/01/20 08:34:59;;;;;;;12.32;8.75;;;;;;;-0.82;82.51;100611.81;5030629;28;20056;-79
2023/01/20 08:38:02;;;;;;;13.77;8.32;;;;;;;-0.93;82.62;100614.41;5031328;28;20075;-79
2023/01/20 08:41:09;;;;;;;;;;;;;;;-0.83;82.70;100618.66;5070375;28;20079;-79
2023/01/20 08:44:14;;;;;;;12.43;8.45;;;;;;;-0.68;81.85;100619.44;5054574;28;19958;-79
2023/01/20 08:52:25;;;;;;;15.50;8.13;;;;;;;-0.43;81.17;100631.28;5089532;28;20048;-79
2023/01/20 08:55:30;;;;;;;;;;;;;;;-0.45;81.62;100633.00;5093423;28;20039;-79
2023/01/20 08:58:33;;;;;;;11.40;7.60;;;;;;;-0.40;82.11;100631.28;5094554;28;19962;-79
2023/01/20 09:01:36;;;;;;;10.88;7.65;;;;;;;-0.43;81.75;100633.84;5094767;28;20138;-79
2023/01/20 09:04:39;;;;;;;14.10;7.35;;;;;;;-0.56;82.45;100634.78;5067875;28;20044;-80
2023/01/20 09:17:55;;;;;;;9.93;7.28;;;;;;;-0.43;83.37;100651.00;5126032;27;20375;-65
2023/01/20 09:20:59;;;;;;;10.38;6.85;;;;;;;-0.33;82.72;100643.22;5126587;28;20088;-65
2023/01/20 09:24:02;;;;;;;10.43;6.88;;;;;;;-0.26;82.35;100649.16;5126607;28;20042;-64
2023/01/20 09:27:05;;;;;;;13.38;7.72;;;;;;;-0.35;82.67;100641.50;5126931;28;20119;-64
2023/01/20 09:30:09;;;;;;;12.23;8.55;;;;;;;-0.22;82.34;100642.28;5126773;28;20601;-64
2023/01/20 09:33:12;;;;;;;9.10;6.88;;;;;;;-0.24;82.17;100639.75;5125879;28;20072;-64
2023/01/20 09:36:16;;;;;;;10.88;6.82;;;;;;;-0.10;81.70;100644.78;5126021;28;20085;-64
2023/01/20 09:46:30;;;;;;;10.63;7.43;;;;;;;-0.18;81.93;100642.28;5125659;28;20047;-65
2023/01/20 09:53:41;;;;;;;11.23;7.90;;;;;;;-0.15;83.09;100637.13;5125935;28;20131;-64
2023/01/20 09:56:48;;;;;;;10.27;7.25;;;;;;;-0.27;84.11;100640.63;5105402;28;20043;-65
2023/01/20 09:59:59;;;;;;;14.63;8.43;;;;;;;-0.13;84.50;100639.66;5121416;28;20046;-66
2023/01/20 10:03:20;;;;;;;10.95;7.55;;;;;;;-0.07;84.56;100639.63;5125539;28;20054;-65
2023/01/20 10:06:39;;;;;;;11.75;7.43;;;;;;;0.01;84.43;100642.16;5125654;28;20034;-68
2023/01/20 10:10:20;;;;;;;12.35;8.07;;;;;;;-0.05;84.79;100645.63;5102946;28;20059;-66
2023/01/20 10:13:51;;;;;;;15.73;8.90;;;;;;;0.03;85.30;100640.41;5093431;28;20115;-66
2023/01/20 10:17:08;;;;;;;10.23;7.85;;;;;;;0.17;85.19;100634.31;5101157;28;20098;-66
2023/01/20 10:20:12;;;;;;;14.68;8.55;;;;;;;0.26;85.00;100633.41;5085923;28;20078;-65
2023/01/20 10:23:21;;;;;;;13.45;8.73;;;;;;;0.40;84.98;100638.41;5070144;28;20043;-65
2023/01/20 10:26:48;;;;;;;10.45;7.97;;;;;;;0.42;85.14;100634.97;5070466;28;20067;-65
2023/01/20 10:30:04;;;;;;;10.90;7.57;;;;;;;0.48;85.08;100636.63;5070238;28;20123;-65
2023/01/20 10:33:20;;;;;;;17.05;8.35;;;;;;;0.61;84.71;100635.66;5071065;28;20039;-65
2023/01/20 10:36:27;;;;;;;13.18;8.95;;;;;;;0.30;85.18;100634.22;5070591;28;20558;-65
2023/01/20 10:39:43;;;;;;;64.15;34.85;;;;;;;0.47;84.19;100628.03;5077655;28;20039;-64
2023/01/20 10:42:51;;;;;;;17.83;10.30;;;;;;;0.75;80.75;100632.09;5090142;28;20560;-64
2023/01/20 10:46:13;;;;;;;12.20;8.48;;;;;;;0.92;80.67;100627.59;5090122;28;20074;-65
2023/01/20 10:49:44;;;;;;;16.45;9.40;;;;;;;1.10;78.66;100623.97;5090482;28;20059;-65
2023/01/20 10:52:57;;;;;;;14.02;8.98;;;;;;;1.21;78.17;100626.41;5089479;28;20140;-65
2023/01/20 10:56:05;;;;;;;14.00;8.85;;;;;;;1.30;78.71;100621.97;5088470;28;20105;-65
2023/01/20 10:59:14;;;;;;;14.38;8.25;;;;;;;1.33;77.23;100626.25;5090031;28;20070;-65
2023/01/20 11:02:25;;;;;;;15.30;8.77;;;;;;;1.38;76.74;100624.47;5090084;28;20132;-64
2023/01/20 11:05:31;;;;;;;14.55;10.38;;;;;;;1.49;76.61;100611.44;5090201;28;20095;-65
2023/01/20 11:08:34;;;;;;;11.82;8.63;;;;;;;1.38;76.28;100627.91;5088720;28;20466;-65
2023/01/20 11:11:37;;;;;;;15.45;8.73;;;;;;;1.51;76.34;100626.03;5088164;28;20047;-65
2023/01/20 11:14:41;;;;;;;14.93;7.72;;;;;;;1.69;75.73;100622.34;5089063;28;20050;-65
2023/01/20 11:17:44;;;;;;;12.23;7.90;;;;;;;1.72;74.46;100618.84;5076509;28;20125;-65
2023/01/20 11:20:51;;;;;;;11.82;7.80;;;;;;;1.75;76.09;100629.13;5070575;28;20094;-65
2023/01/20 11:36:32;;;;;;;12.18;7.80;;;;;;;1.78;80.21;100639.38;6250704;22;1326833;-73
2023/01/20 11:39:41;;;;;;;;;;;;;;;1.78;80.60;100632.50;6280823;22;20025;-73
2023/01/20 11:42:46;;;;;;;14.50;9.38;;;;;;;1.99;78.35;100627.91;6282534;22;19914;-73
2023/01/20 11:45:51;;;;;;;10.48;7.43;;;;;;;2.30;79.58;100623.13;6282024;22;20436;-73
2023/01/20 11:49:23;;;;;;;12.98;7.50;;;;;;;2.30;73.55;100628.28;6283802;22;20073;-73
2023/01/20 11:52:26;;;;;;;13.70;8.02;;;;;;;2.35;76.87;100636.78;6283093;22;20019;-73
2023/01/20 11:55:30;;;;;;;12.00;8.57;;;;;;;2.13;73.55;100636.28;6283846;22;20034;-73
2023/01/20 11:58:49;;;;;;;12.43;7.18;;;;;;;2.35;75.01;100636.78;6283855;22;20092;-73
2023/01/20 12:01:52;;;;;;;11.02;6.90;;;;;;;2.56;73.82;100628.69;6283926;22;20027;-73
2023/01/20 12:05:09;;;;;;;;;;;;;;;2.46;78.01;100629.72;6284430;22;20023;-73
2023/01/20 12:08:20;;;;;;;11.88;7.70;;;;;;;2.45;77.92;100630.59;6283953;22;19994;-73
2023/01/20 12:11:50;;;;;;;10.18;7.55;;;;;;;2.51;78.57;100627.91;6283694;22;20459;-73
2023/01/20 12:15:04;;;;;;;12.50;7.10;;;;;;;2.48;75.61;100640.00;6283781;22;20069;-73
2023/01/20 12:18:32;;;;;;;9.98;5.95;;;;;;;2.48;72.20;100627.94;6283691;22;20030;-78
2023/01/20 12:21:44;;;;;;;10.80;6.97;;;;;;;2.56;70.90;100623.53;6283873;22;20076;-76
2023/01/20 12:25:09;;;;;;;14.18;9.27;;;;;;;2.58;71.07;100622.63;6283732;22;20022;-76
2023/01/20 12:28:20;;;;;;;;;;;;;;;2.61;71.60;100632.91;6253501;23;20023;-75
2023/01/20 12:31:24;;;;;;;13.25;8.23;;;;;;;2.40;71.08;100632.41;6253356;23;20269;-79
2023/01/20 12:34:29;;;;;;;21.23;11.60;;;;;;;2.53;70.92;100631.31;6253193;23;20360;-78
2023/01/20 12:37:48;;;;;;;19.92;11.63;;;;;;;2.62;70.98;100624.31;6246108;23;20066;-78
2023/01/20 12:40:53;;;;;;;39.20;20.48;;;;;;;2.48;71.15;100625.38;6246081;23;20027;-80
2023/01/20 12:44:15;;;;;;;23.58;14.38;;;;;;;2.59;72.93;100629.50;6246374;23;20027;-79
2023/01/20 12:47:24;;;;;;;18.92;12.07;;;;;;;2.72;72.82;100631.00;6246222;23;20480;-77
2023/01/20 12:50:27;;;;;;;20.48;11.57;;;;;;;2.55;70.40;100629.56;6246138;23;20027;-78
2023/01/20 12:53:40;;;;;;;19.27;11.48;;;;;;;2.75;73.03;100630.94;6245123;23;20061;-78
2023/01/20 12:57:08;;;;;;;15.27;10.05;;;;;;;2.81;74.97;100623.06;6246038;23;20070;-79
2023/01/20 13:00:43;;;;;;;14.05;7.25;;;;;;;2.78;71.51;100634.31;6246151;23;20357;-82
2023/01/20 13:04:24;;;;;;;13.45;5.78;;;;;;;2.79;70.14;100630.84;6244951;23;20349;-77
2023/01/20 13:07:37;;;;;;;15.68;7.63;;;;;;;2.96;73.69;100622.75;6245949;23;20077;-79
2023/01/20 13:11:03;;;;;;;10.57;7.43;;;;;;;2.89;71.91;100628.94;6244701;23;20046;-78
2023/01/20 13:14:15;;;;;;;10.27;6.20;;;;;;;2.69;70.50;100636.22;6246185;23;20106;-81
2023/01/20 13:17:23;;;;;;;6.70;4.30;;;;;;;2.52;69.84;100632.19;6245967;23;20026;-81
2023/01/20 13:20:30;;;;;;;7.95;4.43;;;;;;;2.53;70.22;100631.31;6244789;23;20077;-77
2023/01/20 13:23:36;;;;;;;11.00;5.03;;;;;;;2.54;70.85;100621.84;6245839;23;20548;-74
2023/01/20 13:26:42;;;;;;;7.63;3.67;;;;;;;2.63;70.89;100628.56;6245545;23;20507;-74
2023/01/20 13:29:55;;;;;;;8.75;4.90;;;;;;;2.70;70.41;100617.25;6244616;23;20030;-75
2023/01/20 13:33:04;;;;;;;;;;;;;;;2.62;70.08;100624.31;6243512;23;20027;-77
2023/01/20 13:36:19;;;;;;;9.85;4.00;;;;;;;2.76;70.45;100624.88;6238663;23;20348;-76
2023/01/20 13:39:29;;;;;;;8.73;5.85;;;;;;;2.79;72.62;100624.81;6237712;23;20147;-76
2023/01/20 13:54:48;;;;;;;6.72;3.90;;;;;;;2.65;74.96;100629.38;5835726;22;10458959;-68
2023/01/20 13:58:36;;;;;;;7.05;4.07;;;;;;;2.57;77.94;100632.09;6251384;23;20027;-69
2023/01/20 14:01:42;;;;;;;9.30;3.90;;;;;;;2.61;78.12;100627.75;6252529;23;20089;-70
2023/01/20 14:04:47;;;;;;;9.45;4.95;;;;;;;2.66;76.66;100637.09;6252342;23;20030;-68
2023/01/20 14:07:56;;;;;;;6.47;4.30;;;;;;;2.72;76.95;100646.47;6250909;23;20026;-68
2023/01/20 14:11:18;;;;;;;6.82;4.35;;;;;;;2.77;76.82;100644.66;6253033;23;20024;-69
2023/01/20 14:14:26;;;;;;;9.13;3.58;;;;;;;2.75;76.99;100641.25;6252799;23;20173;-68
2023/01/20 14:17:31;;;;;;;6.82;4.32;;;;;;;2.73;77.69;100641.28;6234477;23;20031;-69
2023/01/20 14:20:36;;;;;;;6.82;3.55;;;;;;;2.71;78.17;100644.75;6252621;23;20047;-68
2023/01/20 14:23:39;;;;;;;5.75;3.30;;;;;;;2.72;79.33;100646.47;6233723;23;20023;-68
2023/01/20 14:26:43;;;;;;;7.07;3.00;;;;;;;2.67;79.58;100643.13;6252564;23;20023;-68
2023/01/20 14:29:51;;;;;;;7.55;4.18;;;;;;;2.62;79.76;100644.94;6233994;23;20549;-68
2023/01/20 14:32:57;;;;;;;7.30;3.28;;;;;;;2.63;79.85;100646.66;6252087;23;20022;-68
2023/01/20 14:39:20;;;;;;;5.25;3.58;;;;;;;2.59;81.20;100657.91;6230038;22;20028;-77
2023/01/20 14:42:25;;;;;;;8.32;3.80;;;;;;;2.52;80.42;100658.00;6203910;23;20027;-78
2023/01/20 14:45:31;;;;;;;8.82;4.65;;;;;;;2.49;79.21;100665.81;6200722;23;20028;-69
2023/01/20 14:48:35;;;;;;;8.18;5.57;;;;;;;2.58;78.30;100662.19;6203067;23;20075;-70
2023/01/20 14:51:38;;;;;;;32.20;14.48;;;;;;;2.50;76.41;100672.66;6221847;23;20349;-69
2023/01/20 14:54:44;;;;;;;19.38;9.65;;;;;;;2.51;76.89;100679.53;6216385;23;20429;-68
2023/01/20 14:57:47;;;;;;;58.20;28.70;;;;;;;2.52;76.86;100683.81;6215290;23;20516;-69
2023/01/20 15:00:54;;;;;;;;;;;;;;;2.61;76.56;100694.84;6215499;23;20059;-72
2023/01/20 15:03:59;;;;;;;26.77;12.38;;;;;;;2.58;76.76;100689.75;6211362;23;19964;-69
2023/01/20 15:07:05;;;;;;;12.73;6.68;;;;;;;2.58;77.71;100700.06;6193576;23;20032;-69
2023/01/20 15:10:14;;;;;;;;;;;;;;;2.61;78.20;100700.03;6211139;23;20055;-70
2023/01/20 15:13:26;;;;;;;13.55;8.07;;;;;;;2.66;78.92;100703.38;6209846;23;19914;-69
2023/01/20 15:16:43;;;;;;;21.40;11.38;;;;;;;2.61;79.48;100707.75;6192009;23;20527;-68
2023/01/20 15:19:49;;;;;;;14.93;6.65;;;;;;;2.26;81.43;100716.91;6191593;23;20126;-68
2023/01/20 15:22:53;;;;;;;9.05;5.30;;;;;;;2.13;82.39;100717.97;6209586;23;20027;-68
2023/01/20 15:26:17;;;;;;;10.65;5.22;;;;;;;2.17;82.68;100719.63;6192362;23;20096;-69
2023/01/20 15:29:29;;;;;;;12.15;5.85;;;;;;;2.25;82.68;100725.53;6211730;23;20026;-68
2023/01/20 15:32:32;;;;;;;8.35;4.80;;;;;;;2.25;83.18;100728.13;6211296;23;20404;-68
2023/01/20 15:35:37;;;;;;;11.35;5.60;;;;;;;2.21;83.34;100736.78;6193073;23;20027;-69
2023/01/20 15:38:42;;;;;;;11.38;6.22;;;;;;;2.15;83.34;100740.31;6191395;23;20120;-72
2023/01/20 15:41:47;;;;;;;9.57;6.18;;;;;;;2.31;83.63;100738.34;6210412;23;20147;-70
2023/01/20 15:44:52;;;;;;;17.40;11.38;;;;;;;1.67;85.40;100742.66;6192044;23;20051;-70
2023/01/20 15:47:56;;;;;;;22.95;16.67;;;;;;;1.53;87.01;100741.94;6192071;23;20102;-70
2023/01/20 15:51:00;;;;;;;21.90;15.20;;;;;;;1.86;85.73;100745.84;6210978;23;20086;-71
2023/01/20 15:54:06;;;;;;;19.85;14.63;;;;;;;2.21;84.53;100752.25;6210017;23;20405;-70
2023/01/20 15:57:16;;;;;;;26.00;20.67;;;;;;;2.30;83.92;100754.72;6192681;23;20110;-70
2023/01/20 16:00:21;;;;;;;19.70;13.40;;;;;;;1.86;84.86;100751.00;6211253;23;20027;-71
2023/01/20 16:03:26;;;;;;;14.90;10.45;;;;;;;1.51;87.08;100760.03;6210982;23;20078;-71
2023/01/20 16:06:32;;;;;;;16.13;10.43;;;;;;;1.83;86.19;100766.53;6209941;23;20509;-71
2023/01/20 16:09:37;;;;;;;11.02;8.48;;;;;;;2.09;85.46;100766.19;6191049;23;20512;-70